createdAt,value
2023-09-16T00:01:02.213Z,7.35
2023-09-16T00:03:49.498Z,6.57
2023-09-16T00:06:36.884Z,6.28
2023-09-16T00:09:25.275Z,7.32
2023-09-16T00:12:14.303Z,6.63
2023-09-16T00:15:01.494Z,8.25
2023-09-16T00:17:48.796Z,6.97
2023-09-16T00:20:38.986Z,7.20
2023-09-16T00:23:27.910Z,6.90
2023-09-16T00:26:15.873Z,7.10
2023-09-16T00:29:03.217Z,7.32
2023-09-16T00:31:51.473Z,6.57
2023-09-16T00:34:38.682Z,7.38
2023-09-16T00:37:26.048Z,7.07
2023-09-16T00:40:13.315Z,7.43
2023-09-16T00:43:00.581Z,7.28
2023-09-16T00:45:48.024Z,7.70
2023-09-16T00:48:36.526Z,7.00
2023-09-16T00:51:24.009Z,8.27
2023-09-16T00:54:12.165Z,9.27
2023-09-16T00:57:00.498Z,8.77
2023-09-16T00:59:47.798Z,7.10
2023-09-16T01:02:38.464Z,7.57
2023-09-16T01:05:26.090Z,7.28
2023-09-16T01:08:13.441Z,7.63
2023-09-16T01:11:01.359Z,7.97
2023-09-16T01:13:51.402Z,7.90
2023-09-16T01:17:20.442Z,7.22
2023-09-16T01:20:16.597Z,7.50
2023-09-16T01:23:04.316Z,7.68
2023-09-16T01:25:51.598Z,8.52
2023-09-16T01:28:39.010Z,10.02
2023-09-16T01:31:26.397Z,9.02
2023-09-16T01:34:46.048Z,7.80
2023-09-16T01:37:34.800Z,10.85
2023-09-16T01:40:24.124Z,7.70
2023-09-16T01:43:11.451Z,8.73
2023-09-16T01:45:58.938Z,8.38
2023-09-16T01:48:47.325Z,8.13
2023-09-16T01:51:34.944Z,11.23
2023-09-16T01:54:22.162Z,9.88
2023-09-16T01:57:09.459Z,9.00
2023-09-16T01:59:56.697Z,9.07
2023-09-16T02:02:43.965Z,8.43
2023-09-16T02:05:31.500Z,8.65
2023-09-16T02:08:18.646Z,10.77
2023-09-16T02:11:06.480Z,9.25
2023-09-16T02:13:53.654Z,10.32
2023-09-16T02:16:41.394Z,8.73
2023-09-16T02:19:29.973Z,10.35
2023-09-16T02:22:17.163Z,9.50
2023-09-16T02:25:04.598Z,11.60
2023-09-16T02:27:51.959Z,11.10
2023-09-16T02:30:39.215Z,9.30
2023-09-16T02:33:26.464Z,9.30
2023-09-16T02:36:14.139Z,9.73
2023-09-16T02:39:01.340Z,9.88
2023-09-16T02:41:48.539Z,10.27
2023-09-16T02:44:35.738Z,9.75
2023-09-16T02:47:22.920Z,10.15
2023-09-16T02:50:10.442Z,9.65
2023-09-16T02:52:57.615Z,10.10
2023-09-16T02:55:44.857Z,12.15
2023-09-16T02:58:32.201Z,9.90
2023-09-16T03:01:19.479Z,9.23
2023-09-16T03:04:06.832Z,10.95
2023-09-16T03:06:54.521Z,12.18
2023-09-16T03:09:41.815Z,10.05
2023-09-16T03:12:29.011Z,9.98
2023-09-16T03:15:16.208Z,9.70
2023-09-16T03:18:08.473Z,9.68
2023-09-16T03:20:56.246Z,10.25
2023-09-16T03:23:43.907Z,10.85
2023-09-16T03:26:32.016Z,10.25
2023-09-16T03:29:20.957Z,9.10
2023-09-16T03:32:08.431Z,10.65
2023-09-16T03:34:56.946Z,12.45
2023-09-16T03:37:44.318Z,9.18
2023-09-16T03:40:31.538Z,9.10
2023-09-16T03:43:19.364Z,9.13
2023-09-16T03:46:07.002Z,9.70
2023-09-16T03:48:54.184Z,9.40
2023-09-16T03:51:41.848Z,9.88
2023-09-16T03:54:29.141Z,9.05
2023-09-16T03:57:16.303Z,9.20
2023-09-16T04:00:08.076Z,9.73
2023-09-16T04:02:55.368Z,9.05
2023-09-16T04:05:42.757Z,10.15
2023-09-16T04:08:40.642Z,10.40
2023-09-16T04:11:29.186Z,8.40
2023-09-16T04:14:16.392Z,8.85
2023-09-16T04:17:05.460Z,8.77
2023-09-16T04:19:52.733Z,8.55
2023-09-16T04:22:39.943Z,8.60
2023-09-16T04:25:27.078Z,10.18
2023-09-16T04:28:16.282Z,8.52
2023-09-16T04:31:05.673Z,9.45
2023-09-16T04:33:53.193Z,9.02
2023-09-16T04:36:41.353Z,8.82
2023-09-16T04:39:28.698Z,8.93
2023-09-16T04:42:16.782Z,8.77
2023-09-16T04:45:05.772Z,10.68
2023-09-16T04:47:53.511Z,8.75
2023-09-16T04:50:47.448Z,7.65
2023-09-16T04:53:34.959Z,8.95
2023-09-16T04:56:22.165Z,11.18
2023-09-16T04:59:09.358Z,8.40
2023-09-16T05:01:56.595Z,7.97
2023-09-16T05:04:43.823Z,8.13
2023-09-16T05:07:31.146Z,7.70
2023-09-16T05:10:18.396Z,7.63
2023-09-16T05:13:05.692Z,9.88
2023-09-16T05:15:52.960Z,9.20
2023-09-16T05:18:40.467Z,8.45
2023-09-16T05:21:27.720Z,7.38
2023-09-16T05:24:14.962Z,7.30
2023-09-16T05:27:02.238Z,7.50
2023-09-16T05:29:53.007Z,8.73
2023-09-16T05:32:40.238Z,10.70
2023-09-16T05:35:27.435Z,7.90
2023-09-16T05:38:14.634Z,8.68
2023-09-16T05:41:01.807Z,8.18
2023-09-16T05:43:49.266Z,8.23
2023-09-16T05:46:36.653Z,9.68
2023-09-16T05:49:24.546Z,8.80
2023-09-16T05:52:11.837Z,8.82
2023-09-16T05:54:59.166Z,7.93
2023-09-16T05:57:46.373Z,9.75
2023-09-16T06:00:33.874Z,12.02
2023-09-16T06:03:21.359Z,8.55
2023-09-16T06:06:08.591Z,10.68
2023-09-16T06:08:55.793Z,8.93
2023-09-16T06:11:43.023Z,9.73
2023-09-16T06:14:30.345Z,8.95
2023-09-16T06:17:19.252Z,9.63
2023-09-16T06:20:07.273Z,9.50
2023-09-16T06:22:54.491Z,11.35
2023-09-16T06:25:41.942Z,9.77
2023-09-16T06:28:29.218Z,12.10
2023-09-16T06:31:16.482Z,12.02
2023-09-16T06:34:03.953Z,10.52
2023-09-16T06:36:51.292Z,9.93
2023-09-16T06:39:39.764Z,10.13
2023-09-16T06:42:27.039Z,9.98
2023-09-16T06:45:14.458Z,9.80
2023-09-16T06:48:01.669Z,12.82
2023-09-16T06:50:49.030Z,11.85
2023-09-16T06:53:36.314Z,17.33
2023-09-16T06:56:23.626Z,12.60
2023-09-16T06:59:22.906Z,14.70
2023-09-16T07:02:10.127Z,13.80
2023-09-16T07:04:57.748Z,12.70
2023-09-16T07:07:45.073Z,13.85
2023-09-16T07:10:32.332Z,12.82
2023-09-16T07:13:19.608Z,14.00
2023-09-16T07:16:07.178Z,13.82
2023-09-16T07:18:54.440Z,12.80
2023-09-16T07:21:41.785Z,15.38
2023-09-16T07:24:29.126Z,12.52
2023-09-16T07:27:18.511Z,14.32
2023-09-16T07:30:06.434Z,13.13
2023-09-16T07:32:54.289Z,14.10
2023-09-16T07:39:55.155Z,11.05
2023-09-16T07:42:42.498Z,11.77
2023-09-16T07:45:29.735Z,13.18
2023-09-16T07:48:18.508Z,11.70
2023-09-16T07:51:05.815Z,10.73
2023-09-16T07:53:53.323Z,11.68
2023-09-16T07:56:40.561Z,9.52
2023-09-16T07:59:28.530Z,9.38
2023-09-16T08:02:16.627Z,9.38
2023-09-16T08:05:04.051Z,9.13
2023-09-16T08:07:51.413Z,9.05
2023-09-16T08:10:38.669Z,12.02
2023-09-16T08:13:25.905Z,9.10
2023-09-16T08:16:13.344Z,9.60
2023-09-16T08:19:00.742Z,8.93
2023-09-16T08:21:48.575Z,9.20
2023-09-16T08:24:35.831Z,8.85
2023-09-16T08:27:23.155Z,8.73
2023-09-16T08:30:10.806Z,10.55
2023-09-16T08:32:58.195Z,8.73
2023-09-16T08:35:45.603Z,8.13
2023-09-16T08:38:32.873Z,8.98
2023-09-16T08:41:31.554Z,8.48
2023-09-16T08:44:22.402Z,8.02
2023-09-16T08:47:16.755Z,8.20
2023-09-16T08:50:11.565Z,10.27
2023-09-16T08:57:12.466Z,9.10
2023-09-16T09:00:00.099Z,10.40
2023-09-16T09:02:49.526Z,8.75
2023-09-16T09:05:38.207Z,12.20
2023-09-16T09:08:25.898Z,9.32
2023-09-16T09:11:16.251Z,9.07
2023-09-16T09:14:04.998Z,9.27
2023-09-16T09:16:55.245Z,8.43
2023-09-16T09:19:43.753Z,9.52
2023-09-16T09:22:32.862Z,8.88
2023-09-16T09:25:27.916Z,8.20
2023-09-16T09:28:16.039Z,8.98
2023-09-16T09:31:03.716Z,7.68
2023-09-16T09:33:51.691Z,7.78
2023-09-16T09:36:48.125Z,7.15
2023-09-16T09:39:35.622Z,7.57
2023-09-16T09:42:22.900Z,6.57
2023-09-16T09:45:11.128Z,8.00
2023-09-16T09:47:58.910Z,6.53
2023-09-16T09:50:46.320Z,7.00
2023-09-16T09:53:34.371Z,6.40
2023-09-16T09:56:21.637Z,6.82
2023-09-16T09:59:09.056Z,6.93
2023-09-16T10:01:56.416Z,7.65
2023-09-16T10:04:43.850Z,8.02
2023-09-16T10:07:31.165Z,6.50
2023-09-16T10:10:23.041Z,6.55
2023-09-16T10:13:11.162Z,7.25
2023-09-16T10:16:01.708Z,6.78
2023-09-16T10:18:49.518Z,6.28
2023-09-16T10:21:38.433Z,6.22
2023-09-16T10:24:26.062Z,5.45
2023-09-16T10:27:22.771Z,5.82
2023-09-16T10:30:10.972Z,7.13
2023-09-16T10:33:03.027Z,5.70
2023-09-16T10:35:51.812Z,7.32
2023-09-16T10:38:39.653Z,5.88
2023-09-16T10:41:28.067Z,6.10
2023-09-16T10:44:17.785Z,6.05
2023-09-16T10:47:06.703Z,7.15
2023-09-16T10:49:54.637Z,6.32
2023-09-16T10:52:52.448Z,6.93
2023-09-16T10:56:09.161Z,6.32
2023-09-16T10:59:11.773Z,5.85
2023-09-16T11:02:25.041Z,7.03
2023-09-16T11:05:12.457Z,6.57
2023-09-16T11:08:00.219Z,6.22
2023-09-16T11:10:48.037Z,6.53
2023-09-16T11:13:36.140Z,5.72
2023-09-16T11:20:32.435Z,7.65
2023-09-16T11:23:19.830Z,7.80
2023-09-16T11:26:07.561Z,7.05
2023-09-16T11:28:57.550Z,6.15
2023-09-16T11:31:45.333Z,6.32
2023-09-16T11:34:33.573Z,5.93
2023-09-16T11:37:25.673Z,6.72
2023-09-16T11:40:14.512Z,7.15
2023-09-16T11:43:02.643Z,6.43
2023-09-16T11:45:51.213Z,6.22
2023-09-16T11:48:49.883Z,5.93
2023-09-16T11:51:37.810Z,6.85
2023-09-16T11:54:25.145Z,5.25
2023-09-16T11:57:13.336Z,7.47
2023-09-16T12:00:02.799Z,6.32
2023-09-16T12:02:50.451Z,5.65
2023-09-16T12:05:38.196Z,6.35
2023-09-16T12:08:25.624Z,5.78
2023-09-16T12:11:13.168Z,5.75
2023-09-16T12:14:02.035Z,6.30
2023-09-16T12:16:53.652Z,5.50
2023-09-16T12:19:51.252Z,5.75
2023-09-16T12:22:38.637Z,6.53
2023-09-16T12:25:28.027Z,6.28
2023-09-16T12:28:21.726Z,5.53
2023-09-16T12:31:15.349Z,6.65
2023-09-16T12:34:02.822Z,5.70
2023-09-16T12:36:54.732Z,6.28
2023-09-16T12:39:42.432Z,5.32
2023-09-16T12:42:30.744Z,5.13
2023-09-16T12:45:19.507Z,5.40
2023-09-16T12:48:10.937Z,6.38
2023-09-16T12:51:00.457Z,5.75
2023-09-16T12:53:51.592Z,5.50
2023-09-16T12:56:44.609Z,5.35
2023-09-16T12:59:32.127Z,5.20
2023-09-16T13:02:21.904Z,5.78
2023-09-16T13:05:19.654Z,5.57
2023-09-16T13:08:09.303Z,5.67
2023-09-16T13:10:56.618Z,5.85
2023-09-16T13:13:44.088Z,5.60
2023-09-16T13:16:36.552Z,5.80
2023-09-16T13:19:24.197Z,5.65
2023-09-16T13:22:13.167Z,5.60
2023-09-16T13:25:00.898Z,6.03
2023-09-16T13:27:48.161Z,5.80
2023-09-16T13:30:38.991Z,5.30
2023-09-16T13:33:55.236Z,5.45
2023-09-16T13:36:43.405Z,6.00
2023-09-16T13:39:43.858Z,5.85
2023-09-16T13:42:31.122Z,6.13
2023-09-16T13:45:18.451Z,5.80
2023-09-16T13:48:12.002Z,5.72
2023-09-16T13:50:59.276Z,6.13
2023-09-16T13:53:46.589Z,5.80
2023-09-16T13:56:33.863Z,5.93
2023-09-16T13:59:21.177Z,5.80
2023-09-16T14:02:09.449Z,5.78
2023-09-16T14:04:56.763Z,6.22
2023-09-16T14:07:44.027Z,5.30
2023-09-16T14:10:31.806Z,6.15
2023-09-16T14:13:19.095Z,8.15
2023-09-16T14:16:07.476Z,5.97
2023-09-16T14:18:54.910Z,6.13
2023-09-16T14:21:42.188Z,7.22
2023-09-16T14:24:29.902Z,6.28
2023-09-16T14:27:17.154Z,7.15
2023-09-16T14:30:04.763Z,7.85
2023-09-16T14:32:52.176Z,13.65
2023-09-16T14:35:39.419Z,6.68
2023-09-16T14:38:26.777Z,6.82
2023-09-16T14:41:14.137Z,4.00
2023-09-16T14:44:01.429Z,6.13
2023-09-16T14:46:48.833Z,4.50
2023-09-16T14:49:36.253Z,6.53
2023-09-16T14:52:24.717Z,4.68
2023-09-16T14:55:12.188Z,5.30
2023-09-16T14:58:01.156Z,6.50
2023-09-16T15:00:48.609Z,7.10
2023-09-16T15:03:35.892Z,7.43
2023-09-16T15:06:23.269Z,7.85
2023-09-16T15:09:10.625Z,8.02
2023-09-16T15:11:58.837Z,7.85
2023-09-16T15:14:46.407Z,7.85
2023-09-16T15:17:33.674Z,7.68
2023-09-16T15:20:21.898Z,8.18
2023-09-16T15:23:09.236Z,9.60
2023-09-16T15:25:56.624Z,9.23
2023-09-16T15:28:44.222Z,9.00
2023-09-16T15:31:33.269Z,9.40
2023-09-16T15:34:20.746Z,9.07
2023-09-16T15:37:09.690Z,9.07
2023-09-16T15:39:58.470Z,8.05
2023-09-16T15:42:46.114Z,8.68
2023-09-16T15:45:36.339Z,7.18
2023-09-16T15:48:27.180Z,6.63
2023-09-16T15:51:15.361Z,7.70
2023-09-16T15:54:02.626Z,7.50
2023-09-16T15:56:49.965Z,6.70
2023-09-16T15:59:39.288Z,6.75
2023-09-16T16:02:26.765Z,9.32
2023-09-16T16:05:14.548Z,7.50
2023-09-16T16:08:01.813Z,8.75
2023-09-16T16:10:49.957Z,7.15
2023-09-16T16:13:37.322Z,6.55
2023-09-16T16:16:25.128Z,7.60
2023-09-16T16:19:12.683Z,7.03
2023-09-16T16:22:00.024Z,6.03
2023-09-16T16:24:47.373Z,7.65
2023-09-16T16:27:34.652Z,6.13
2023-09-16T16:30:23.161Z,6.18
2023-09-16T16:33:10.452Z,8.63
2023-09-16T16:35:57.829Z,6.63
2023-09-16T16:38:45.286Z,8.90
2023-09-16T16:41:32.587Z,9.60
2023-09-16T16:44:19.818Z,8.25
2023-09-16T16:47:07.147Z,9.07
2023-09-16T16:49:54.446Z,11.00
2023-09-16T16:52:41.762Z,10.02
2023-09-16T16:55:29.263Z,8.90
2023-09-16T16:58:16.581Z,9.23
2023-09-16T17:01:03.985Z,8.60
2023-09-16T17:03:51.501Z,8.43
2023-09-16T17:06:38.941Z,7.93
2023-09-16T17:09:26.392Z,7.75
2023-09-16T17:12:13.665Z,8.57
2023-09-16T17:15:01.007Z,8.75
2023-09-16T17:17:49.260Z,8.93
2023-09-16T17:20:36.634Z,8.88
2023-09-16T17:23:25.208Z,9.43
2023-09-16T17:26:14.239Z,9.85
2023-09-16T17:29:01.534Z,9.20
2023-09-16T17:31:48.875Z,8.38
2023-09-16T17:34:36.979Z,8.55
2023-09-16T17:37:24.408Z,9.27
2023-09-16T17:40:11.893Z,9.25
2023-09-16T17:42:59.245Z,7.43
2023-09-16T17:45:46.566Z,6.82
2023-09-16T17:48:33.965Z,5.60
2023-09-16T17:51:21.711Z,5.57
2023-09-16T17:54:09.629Z,5.07
2023-09-16T17:56:57.009Z,4.28
2023-09-16T17:59:44.405Z,4.45
2023-09-16T18:02:32.165Z,6.38
2023-09-16T18:05:19.462Z,4.90
2023-09-16T18:08:06.878Z,4.70
2023-09-16T18:10:54.184Z,5.15
2023-09-16T18:13:41.821Z,4.13
2023-09-16T18:16:29.196Z,4.55
2023-09-16T18:19:16.757Z,4.22
2023-09-16T18:22:04.324Z,5.15
2023-09-16T18:24:51.641Z,3.70
2023-09-16T18:27:39.020Z,4.95
2023-09-16T18:30:26.364Z,4.68
2023-09-16T18:33:13.803Z,4.78
2023-09-16T18:36:01.226Z,4.13
2023-09-16T18:38:48.800Z,4.68
2023-09-16T18:41:36.243Z,4.97
2023-09-16T18:44:24.531Z,10.23
2023-09-16T18:47:12.681Z,7.35
2023-09-16T18:50:00.027Z,6.20
2023-09-16T18:52:47.291Z,6.95
2023-09-16T18:55:34.563Z,5.63
2023-09-16T18:58:22.061Z,6.80
2023-09-16T19:01:10.172Z,9.52
2023-09-16T19:03:58.042Z,7.88
2023-09-16T19:06:45.410Z,7.07
2023-09-16T19:09:36.670Z,15.95
2023-09-16T19:12:25.763Z,8.57
2023-09-16T19:15:14.506Z,11.93
2023-09-16T19:18:01.893Z,7.28
2023-09-16T19:20:50.354Z,7.80
2023-09-16T19:23:37.806Z,6.93
2023-09-16T19:26:25.528Z,7.45
2023-09-16T19:29:12.814Z,4.80
2023-09-16T19:32:01.087Z,5.47
2023-09-16T19:34:49.687Z,4.45
2023-09-16T19:37:37.113Z,6.28
2023-09-16T19:40:24.541Z,5.90
2023-09-16T19:43:12.970Z,3.67
2023-09-16T19:46:05.377Z,4.15
2023-09-16T19:48:52.829Z,4.70
2023-09-16T19:51:40.174Z,3.80
2023-09-16T19:54:27.587Z,3.13
2023-09-16T19:57:14.995Z,3.85
2023-09-16T20:00:02.455Z,3.67
2023-09-16T20:02:53.611Z,3.35
2023-09-16T20:05:41.302Z,6.57
2023-09-16T20:08:28.628Z,3.65
2023-09-16T20:11:16.447Z,4.32
2023-09-16T20:14:03.946Z,3.60
2023-09-16T20:16:51.565Z,7.28
2023-09-16T20:19:39.002Z,3.88
2023-09-16T20:22:26.378Z,3.63
2023-09-16T20:25:16.025Z,5.18
2023-09-16T20:28:03.742Z,4.90
2023-09-16T20:30:51.239Z,3.35
2023-09-16T20:33:38.768Z,3.58
2023-09-16T20:36:26.617Z,4.95
2023-09-16T20:39:14.479Z,4.00
2023-09-16T20:42:01.864Z,3.33
2023-09-16T20:44:49.445Z,4.43
2023-09-16T20:47:36.955Z,4.68
2023-09-16T20:50:24.531Z,5.63
2023-09-16T20:53:11.946Z,4.95
2023-09-16T20:55:59.617Z,4.03
2023-09-16T20:58:47.352Z,4.60
2023-09-16T21:01:35.198Z,5.65
2023-09-16T21:04:24.248Z,4.32
2023-09-16T21:07:15.790Z,4.18
2023-09-16T21:10:04.797Z,6.68
2023-09-16T21:12:52.440Z,4.10
2023-09-16T21:15:40.036Z,4.05
2023-09-16T21:18:27.665Z,4.50
2023-09-16T21:21:15.032Z,4.93
2023-09-16T21:24:02.787Z,5.82
2023-09-16T21:26:52.288Z,5.07
2023-09-16T21:29:39.696Z,4.93
2023-09-16T21:32:27.565Z,6.80
2023-09-16T21:35:15.137Z,4.85
2023-09-16T21:38:02.557Z,6.80
2023-09-16T21:40:50.086Z,5.97
2023-09-16T21:43:37.562Z,4.97
2023-09-16T21:46:25.087Z,5.03
2023-09-16T21:49:12.834Z,5.55
2023-09-16T21:52:00.139Z,6.30
2023-09-16T21:54:47.368Z,7.20
2023-09-16T21:57:34.714Z,6.07
2023-09-16T22:00:32.101Z,7.95
2023-09-16T22:03:19.413Z,6.60
2023-09-16T22:06:06.756Z,7.70
2023-09-16T22:08:53.980Z,8.13
2023-09-16T22:11:41.322Z,7.15
2023-09-16T22:14:28.586Z,7.55
2023-09-16T22:17:15.839Z,8.30
2023-09-16T22:20:07.573Z,7.78
2023-09-16T22:22:56.036Z,11.45
2023-09-16T22:25:43.438Z,12.10
2023-09-16T22:28:30.845Z,12.25
2023-09-16T22:31:18.276Z,13.23
2023-09-16T22:34:06.044Z,13.68
2023-09-16T22:36:53.413Z,15.38
2023-09-16T22:39:47.486Z,15.27
2023-09-16T22:42:43.494Z,17.50
2023-09-16T22:45:30.788Z,17.45
2023-09-16T22:48:18.294Z,17.00
2023-09-16T22:51:05.632Z,16.70
2023-09-16T22:53:52.967Z,18.02
2023-09-16T22:56:40.416Z,16.73
2023-09-16T22:59:27.656Z,16.80
2023-09-16T23:02:15.006Z,12.35
2023-09-16T23:05:05.003Z,10.73
2023-09-16T23:07:52.361Z,9.90
2023-09-16T23:10:39.607Z,8.57
2023-09-16T23:13:26.900Z,8.65
2023-09-16T23:16:14.186Z,7.93
2023-09-16T23:19:01.525Z,7.97
2023-09-16T23:21:48.762Z,8.25
2023-09-16T23:24:36.024Z,7.60
2023-09-16T23:27:23.254Z,7.63
2023-09-16T23:30:11.048Z,7.47
2023-09-16T23:32:58.416Z,7.30
2023-09-16T23:35:45.811Z,8.73
2023-09-16T23:38:33.111Z,7.47
2023-09-16T23:41:20.520Z,7.43
2023-09-16T23:44:08.447Z,8.88
2023-09-16T23:46:55.793Z,8.77
2023-09-16T23:49:44.925Z,8.30
2023-09-16T23:52:34.064Z,9.30
2023-09-16T23:55:21.634Z,8.35
2023-09-16T23:58:09.008Z,9.52
